Time;durP1;ratioP1;P1;durP2;ratioP2;P2;SDS_P1;SDS_P2;PMS_P1;PMS_P2;Temp;Humidity;BMP_temperature;BMP_pressure;BME280_temperature;BME280_humidity;BME280_pressure;Samples;Min_cycle;Max_cycle;Signal;HPM_P1;HPM_P2
2021/03/08 00:01:15;;;;;;;14.18;3.78;;;;;;;-143.98;100.00;68091.63;4987146;28;20101;-83
2021/03/08 00:03:41;;;;;;;24.40;4.40;;;;;;;-143.98;100.00;68091.63;5003216;28;20052;-83
2021/03/08 00:06:08;;;;;;;24.98;5.15;;;;;;;-143.98;100.00;68091.63;5027235;28;20414;-83
2021/03/08 00:08:34;;;;;;;29.33;5.70;;;;;;;-143.98;100.00;68091.63;5002966;28;20339;-83
2021/03/08 00:11:00;;;;;;;22.45;4.60;;;;;;;-143.98;100.00;68091.63;4981186;28;20050;-83
2021/03/08 00:13:33;;;;;;;26.13;3.75;;;;;;;-143.98;100.00;68091.63;4996480;28;20293;-83
2021/03/08 00:16:00;;;;;;;18.70;4.43;;;;;;;-143.98;100.00;68091.63;4979712;28;20061;-83
2021/03/08 00:18:29;;;;;;;20.17;4.20;;;;;;;-143.98;100.00;68091.63;4994884;28;20141;-83
2021/03/08 00:20:55;;;;;;;25.98;4.55;;;;;;;-143.98;100.00;68091.63;4994515;28;20046;-83
2021/03/08 00:23:22;;;;;;;20.90;4.53;;;;;;;-143.98;100.00;68091.63;4992773;28;20054;-83
2021/03/08 00:25:49;;;;;;;22.73;4.22;;;;;;;-143.98;100.00;68091.63;4974800;28;20051;-83
2021/03/08 00:28:15;;;;;;;22.42;4.00;;;;;;;-143.98;100.00;68091.63;4993189;28;20042;-83
2021/03/08 00:30:41;;;;;;;19.92;4.10;;;;;;;-143.98;100.00;68091.63;4993301;28;20065;-83
2021/03/08 00:33:08;;;;;;;19.33;4.05;;;;;;;-143.98;100.00;68091.63;4995235;28;20054;-83
2021/03/08 00:35:34;;;;;;;17.27;4.07;;;;;;;-143.98;100.00;68091.63;4993632;28;20050;-83
2021/03/08 00:38:04;;;;;;;17.85;4.20;;;;;;;-143.98;100.00;68091.63;4996073;28;20050;-83
2021/03/08 00:40:31;;;;;;;25.38;4.97;;;;;;;-143.98;100.00;68091.63;4993334;28;20145;-83
2021/03/08 00:42:57;;;;;;;26.48;5.75;;;;;;;-143.98;100.00;68091.63;5009250;28;20277;-83
2021/03/08 00:45:23;;;;;;;21.23;4.90;;;;;;;-143.98;100.00;68091.63;4977090;28;20150;-83
2021/03/08 00:47:50;;;;;;;24.85;4.32;;;;;;;-143.98;100.00;68091.63;4978338;28;20054;-82
2021/03/08 00:50:28;;;;;;;20.13;4.72;;;;;;;-143.98;100.00;68091.63;4977064;28;20046;-83
2021/03/08 00:52:55;;;;;;;33.47;5.20;;;;;;;-143.98;100.00;68091.63;4980732;28;20072;-83
2021/03/08 00:55:25;;;;;;;30.17;5.50;;;;;;;-143.98;100.00;68091.63;4996989;28;20069;-83
2021/03/08 00:57:51;;;;;;;21.00;5.82;;;;;;;-143.98;100.00;68091.63;4981307;28;20073;-83
2021/03/08 01:00:23;;;;;;;25.27;5.05;;;;;;;-143.98;100.00;68091.63;4997957;28;20106;-82
2021/03/08 01:02:49;;;;;;;24.02;4.97;;;;;;;-143.98;100.00;68091.63;4977344;28;20150;-83
2021/03/08 01:05:16;;;;;;;22.90;5.00;;;;;;;-143.98;100.00;68091.63;4997242;28;20113;-83
2021/03/08 01:07:43;;;;;;;21.40;5.93;;;;;;;-143.98;100.00;68091.63;4998852;28;20061;-83
2021/03/08 01:10:12;;;;;;;28.85;7.03;;;;;;;-143.98;100.00;68091.63;4980596;28;20065;-83
2021/03/08 01:12:43;;;;;;;20.08;4.68;;;;;;;-143.98;100.00;68091.63;4987930;28;20150;-83
2021/03/08 01:15:13;;;;;;;33.70;5.68;;;;;;;-143.98;100.00;68091.63;4980706;28;20058;-83
2021/03/08 01:17:39;;;;;;;20.83;5.57;;;;;;;-143.98;100.00;68091.63;4998699;28;20046;-83
2021/03/08 01:20:08;;;;;;;30.13;7.00;;;;;;;-143.98;100.00;68091.63;4982085;28;20046;-83
2021/03/08 01:22:37;;;;;;;27.30;6.10;;;;;;;-143.98;100.00;68091.63;4997813;28;20156;-83
2021/03/08 01:25:20;;;;;;;16.45;5.40;;;;;;;-143.98;100.00;68091.63;4981272;28;20106;-84
2021/03/08 01:27:46;;;;;;;23.55;5.88;;;;;;;-143.98;100.00;68091.63;5011253;28;20089;-83
2021/03/08 01:30:24;;;;;;;19.95;5.32;;;;;;;-143.98;100.00;68091.63;4992949;28;20034;-83
2021/03/08 01:33:08;;;;;;;19.58;4.97;;;;;;;-143.98;100.00;68091.63;4996822;28;20054;-83
2021/03/08 01:35:34;;;;;;;23.00;4.93;;;;;;;-143.98;100.00;68091.63;4997504;28;20156;-83
2021/03/08 01:38:04;;;;;;;26.42;4.95;;;;;;;-143.98;100.00;68091.63;4997440;28;20047;-83
2021/03/08 01:40:32;;;;;;;24.27;5.75;;;;;;;-143.98;100.00;68091.63;4979797;28;20046;-83
2021/03/08 01:42:58;;;;;;;17.38;5.03;;;;;;;-143.98;100.00;68091.63;4978230;28;20329;-83
2021/03/08 01:45:25;;;;;;;23.83;5.05;;;;;;;-143.98;100.00;68091.63;4981361;28;20062;-83
2021/03/08 01:47:52;;;;;;;18.67;5.60;;;;;;;-143.98;100.00;68091.63;4997145;28;20085;-84
2021/03/08 01:50:24;;;;;;;17.80;4.70;;;;;;;-143.98;100.00;68091.63;4998392;28;20093;-83
2021/03/08 01:52:55;;;;;;;30.52;6.05;;;;;;;-143.98;100.00;68091.63;4996196;28;20337;-84
2021/03/08 01:55:22;;;;;;;31.35;6.57;;;;;;;-143.98;100.00;68091.63;4980003;28;20097;-83
2021/03/08 01:57:48;;;;;;;22.42;6.47;;;;;;;-143.98;100.00;68091.63;4995462;28;20050;-84
2021/03/08 02:00:23;;;;;;;33.88;6.90;;;;;;;-143.98;100.00;68091.63;5006865;28;20054;-83
2021/03/08 02:02:50;;;;;;;28.92;5.80;;;;;;;-143.98;100.00;68091.63;4996803;28;20438;-83
2021/03/08 02:05:19;;;;;;;23.13;6.03;;;;;;;-143.98;100.00;68091.63;4998629;28;20145;-83
2021/03/08 02:07:47;;;;;;;33.70;6.55;;;;;;;-143.98;100.00;68091.63;4981392;28;20107;-83
2021/03/08 02:10:20;;;;;;;30.13;6.80;;;;;;;-143.98;100.00;68091.63;4988448;28;20050;-83
2021/03/08 02:13:16;;;;;;;28.38;5.85;;;;;;;-143.98;100.00;68091.63;5025669;28;20420;-83
2021/03/08 02:15:55;;;;;;;24.45;5.57;;;;;;;-143.98;100.00;68091.63;5020335;28;20052;-83
2021/03/08 02:18:51;;;;;;;26.70;5.20;;;;;;;-143.98;100.00;68091.63;5007022;28;20046;-82
2021/03/08 02:21:35;;;;;;;36.17;6.60;;;;;;;-143.98;100.00;68091.63;5021249;28;20064;-82
2021/03/08 02:24:26;;;;;;;27.35;5.93;;;;;;;-143.98;100.00;68091.63;5010287;28;20050;-82
2021/03/08 02:26:53;;;;;;;20.33;5.40;;;;;;;-143.98;100.00;68091.63;4996570;28;20076;-82
2021/03/08 02:29:34;;;;;;;24.45;6.85;;;;;;;-143.98;100.00;68091.63;4979449;28;20050;-82
2021/03/08 02:32:03;;;;;;;29.20;5.88;;;;;;;-143.98;100.00;68091.63;5008326;28;20043;-82
2021/03/08 02:34:34;;;;;;;14.85;5.22;;;;;;;-143.98;100.00;68091.63;4994876;28;20060;-82
2021/03/08 02:37:11;;;;;;;22.80;5.75;;;;;;;-143.98;100.00;68091.63;4992981;28;20309;-82
2021/03/08 02:39:41;;;;;;;23.52;5.53;;;;;;;-143.98;100.00;68091.63;4995465;28;20066;-82
2021/03/08 02:42:18;;;;;;;24.38;5.90;;;;;;;-143.98;100.00;68091.63;4995214;28;20054;-81
2021/03/08 02:44:45;;;;;;;27.55;5.38;;;;;;;-143.98;100.00;68091.63;5028515;28;20050;-82
2021/03/08 02:47:12;;;;;;;27.45;5.50;;;;;;;-143.98;100.00;68091.63;4994806;28;20059;-81
2021/03/08 02:49:40;;;;;;;25.98;4.78;;;;;;;-143.98;100.00;68091.63;5009632;28;20337;-82
2021/03/08 02:52:09;;;;;;;23.58;5.97;;;;;;;-143.98;100.00;68091.63;4995662;28;20062;-82
2021/03/08 02:54:37;;;;;;;17.40;5.28;;;;;;;-143.98;100.00;68091.63;4979800;28;20053;-82
2021/03/08 02:57:09;;;;;;;25.98;5.68;;;;;;;-143.98;100.00;68091.63;4977852;28;20167;-81
2021/03/08 02:59:44;;;;;;;18.17;5.05;;;;;;;-143.98;100.00;68091.63;4996110;28;20400;-82
2021/03/08 03:02:11;;;;;;;15.85;4.57;;;;;;;-143.98;100.00;68091.63;4996859;28;20048;-80
2021/03/08 03:04:39;;;;;;;28.60;5.20;;;;;;;-143.98;100.00;68091.63;5002264;28;20038;-80
2021/03/08 03:07:10;;;;;;;26.27;4.97;;;;;;;-143.98;100.00;68091.63;5010766;28;20061;-81
2021/03/08 03:09:37;;;;;;;23.40;4.53;;;;;;;-143.98;100.00;68091.63;5001785;28;20077;-80
2021/03/08 03:12:04;;;;;;;24.58;5.43;;;;;;;-143.98;100.00;68091.63;4994816;28;20051;-80
2021/03/08 03:14:31;;;;;;;29.75;6.78;;;;;;;-143.98;100.00;68091.63;4994627;28;20069;-80
2021/03/08 03:17:01;;;;;;;25.90;5.35;;;;;;;-143.98;100.00;68091.63;4978849;28;20072;-79
2021/03/08 03:19:29;;;;;;;25.70;4.82;;;;;;;-143.98;100.00;68091.63;4995849;28;20184;-80
2021/03/08 03:21:59;;;;;;;24.40;5.90;;;;;;;-143.98;100.00;68091.63;4977399;28;20042;-80
2021/03/08 03:24:26;;;;;;;25.52;6.15;;;;;;;-143.98;100.00;68091.63;5008522;28;20054;-80
2021/03/08 03:26:53;;;;;;;21.65;5.22;;;;;;;-143.98;100.00;68091.63;4995312;28;20065;-80
2021/03/08 03:29:23;;;;;;;22.35;5.45;;;;;;;-143.98;100.00;68091.63;5000950;28;20062;-80
2021/03/08 03:31:49;;;;;;;40.00;5.45;;;;;;;-143.98;100.00;68091.63;4996410;28;20192;-80
2021/03/08 03:34:17;;;;;;;26.60;5.82;;;;;;;-143.98;100.00;68091.63;4979766;28;20051;-80
2021/03/08 03:36:44;;;;;;;24.25;4.85;;;;;;;-143.98;100.00;68091.63;4988474;28;20046;-79
2021/03/08 03:39:11;;;;;;;26.35;5.13;;;;;;;-143.98;100.00;68091.63;5009968;28;20042;-79
2021/03/08 03:41:39;;;;;;;17.83;4.43;;;;;;;-143.98;100.00;68091.63;4982232;28;20441;-80
2021/03/08 03:44:07;;;;;;;23.15;4.78;;;;;;;-143.98;100.00;68091.63;4979399;28;20171;-80
2021/03/08 03:46:44;;;;;;;16.50;5.18;;;;;;;-143.98;100.00;68091.63;4978778;28;20145;-82
2021/03/08 03:49:11;;;;;;;30.85;6.15;;;;;;;-143.98;100.00;68091.63;5085619;28;20437;-80
2021/03/08 03:51:39;;;;;;;24.67;4.95;;;;;;;-143.98;100.00;68091.63;4979238;28;20057;-80
2021/03/08 03:54:06;;;;;;;27.58;5.70;;;;;;;-143.98;100.00;68091.63;5011334;28;20073;-80
2021/03/08 03:56:32;;;;;;;30.42;5.35;;;;;;;-143.98;100.00;68091.63;4979313;28;20106;-80
2021/03/08 03:59:37;;;;;;;23.85;6.07;;;;;;;-143.98;100.00;68091.63;4995411;28;20308;-80
2021/03/08 04:02:07;;;;;;;26.73;5.32;;;;;;;-143.98;100.00;68091.63;5009175;28;20327;-81
2021/03/08 04:04:38;;;;;;;21.85;4.40;;;;;;;-143.98;100.00;68091.63;4993733;28;20050;-81
2021/03/08 04:07:08;;;;;;;22.85;6.82;;;;;;;-143.98;100.00;68091.63;5009211;28;20043;-81
2021/03/08 04:09:40;;;;;;;21.45;5.88;;;;;;;-143.98;100.00;68091.63;4977915;28;20056;-80
2021/03/08 04:12:09;;;;;;;18.67;5.20;;;;;;;-143.98;100.00;68091.63;4998267;28;20081;-81
2021/03/08 04:14:36;;;;;;;23.73;5.18;;;;;;;-143.98;100.00;68091.63;4977041;28;20058;-81
2021/03/08 04:17:02;;;;;;;26.17;5.50;;;;;;;-143.98;100.00;68091.63;4993202;28;20058;-81
2021/03/08 04:19:31;;;;;;;27.00;6.03;;;;;;;-143.98;100.00;68091.63;4993970;28;20046;-81
2021/03/08 04:22:02;;;;;;;18.30;5.45;;;;;;;-143.98;100.00;68091.63;5007429;28;20058;-81
2021/03/08 04:24:30;;;;;;;14.85;4.88;;;;;;;-143.98;100.00;68091.63;4992820;28;20054;-81
2021/03/08 04:27:08;;;;;;;16.40;4.97;;;;;;;-143.98;100.00;68091.63;5010228;28;20058;-81
2021/03/08 04:29:39;;;;;;;35.65;5.82;;;;;;;-143.98;100.00;68091.63;5010801;28;20047;-81
2021/03/08 04:32:15;;;;;;;30.10;5.90;;;;;;;-143.98;100.00;68091.63;5005099;28;20085;-81
2021/03/08 04:34:43;;;;;;;19.35;4.65;;;;;;;-143.98;100.00;68091.63;4974705;28;20051;-79
2021/03/08 04:37:12;;;;;;;22.88;5.13;;;;;;;-143.98;100.00;68091.63;4992584;28;20115;-80
2021/03/08 04:39:39;;;;;;;23.50;5.60;;;;;;;-143.98;100.00;68091.63;5009193;28;20110;-80
2021/03/08 04:42:09;;;;;;;26.73;5.10;;;;;;;-143.98;100.00;68091.63;4976555;28;20069;-81
2021/03/08 04:44:36;;;;;;;30.50;5.50;;;;;;;-143.98;100.00;68091.63;4992565;28;20441;-81
2021/03/08 04:47:03;;;;;;;14.85;5.07;;;;;;;-143.98;100.00;68091.63;4974071;28;20050;-81
2021/03/08 04:49:34;;;;;;;27.63;6.18;;;;;;;-143.98;100.00;68091.63;4975072;28;20050;-81
2021/03/08 04:52:01;;;;;;;14.02;4.22;;;;;;;-143.98;100.00;68091.63;4970821;28;20330;-81
2021/03/08 04:54:30;;;;;;;19.60;5.93;;;;;;;-143.98;100.00;68091.63;4991075;28;20054;-81
2021/03/08 04:57:00;;;;;;;25.27;4.90;;;;;;;-143.98;100.00;68091.63;4974214;28;20042;-81
2021/03/08 04:59:27;;;;;;;23.60;8.40;;;;;;;-143.98;100.00;68091.63;4990015;28;20062;-81
2021/03/08 05:01:56;;;;;;;16.58;6.82;;;;;;;-143.98;100.00;68091.63;4988015;28;20043;-81
2021/03/08 05:04:23;;;;;;;24.55;6.95;;;;;;;-143.98;100.00;68091.63;4972394;28;20134;-81
2021/03/08 05:06:51;;;;;;;22.88;7.15;;;;;;;-143.98;100.00;68091.63;5004780;28;20329;-81
2021/03/08 05:09:18;;;;;;;23.98;6.70;;;;;;;-143.98;100.00;68091.63;4980720;28;20046;-81
2021/03/08 05:11:46;;;;;;;18.27;5.82;;;;;;;-143.98;100.00;68091.63;4999635;28;20084;-81
2021/03/08 05:14:17;;;;;;;29.70;6.65;;;;;;;-143.98;100.00;68091.63;5016112;28;20053;-81
2021/03/08 05:16:47;;;;;;;33.17;6.28;;;;;;;-143.98;100.00;68091.63;5012469;28;20057;-81
2021/03/08 05:19:15;;;;;;;16.83;5.57;;;;;;;-143.98;100.00;68091.63;4998938;28;20491;-81
2021/03/08 05:21:42;;;;;;;14.88;6.47;;;;;;;-143.98;100.00;68091.63;5059554;28;20070;-80
2021/03/08 05:24:10;;;;;;;15.90;5.35;;;;;;;-143.98;100.00;68091.63;5023135;28;20061;-81
2021/03/08 05:26:37;;;;;;;17.38;5.72;;;;;;;-143.98;100.00;68091.63;4996181;28;20449;-80
2021/03/08 05:29:05;;;;;;;26.65;6.32;;;;;;;-143.98;100.00;68091.63;4979128;28;20100;-82
2021/03/08 05:31:34;;;;;;;15.30;5.32;;;;;;;-143.98;100.00;68091.63;4988474;28;20047;-80
2021/03/08 05:34:27;;;;;;;24.70;6.70;;;;;;;-143.98;100.00;68091.63;5112741;22;20087;-81
2021/03/08 05:36:53;;;;;;;38.55;5.80;;;;;;;-143.98;100.00;68091.63;5020699;28;20076;-80
2021/03/08 05:39:20;;;;;;;18.55;5.55;;;;;;;-143.98;100.00;68091.63;5058009;28;20270;-80
2021/03/08 05:42:11;;;;;;;18.40;5.40;;;;;;;-143.98;100.00;68091.63;5058805;28;20446;-80
2021/03/08 05:44:56;;;;;;;22.45;7.15;;;;;;;-143.98;100.00;68091.63;5053485;28;20419;-81
2021/03/08 05:48:14;;;;;;;38.00;6.18;;;;;;;-143.98;100.00;68091.63;5037043;28;20044;-81
2021/03/08 05:50:48;;;;;;;37.83;6.90;;;;;;;-143.98;100.00;68091.63;4994812;28;20052;-81
2021/03/08 05:53:33;;;;;;;22.52;6.70;;;;;;;-143.98;100.00;68091.63;5039281;28;20069;-81
2021/03/08 05:56:24;;;;;;;28.85;6.95;;;;;;;-143.98;100.00;68091.63;5048109;28;20490;-81
2021/03/08 05:59:33;;;;;;;23.70;6.72;;;;;;;-143.98;100.00;68091.63;5056657;28;20117;-81
2021/03/08 06:02:32;;;;;;;36.20;9.15;;;;;;;-143.98;100.00;68091.63;5070443;28;20131;-82
2021/03/08 06:05:05;;;;;;;20.20;7.13;;;;;;;-143.98;100.00;68091.63;5066385;28;20052;-81
2021/03/08 06:08:14;;;;;;;23.55;7.43;;;;;;;-143.98;100.00;68091.63;5062850;28;20412;-80
2021/03/08 06:10:48;;;;;;;19.17;6.68;;;;;;;-143.98;100.00;68091.63;5050522;28;20110;-80
2021/03/08 06:13:16;;;;;;;27.08;8.10;;;;;;;-143.98;100.00;68091.63;5035462;28;20123;-81
2021/03/08 06:15:50;;;;;;;32.28;8.25;;;;;;;-143.98;100.00;68091.63;5031287;28;20095;-83
2021/03/08 06:18:17;;;;;;;21.92;7.53;;;;;;;-143.98;100.00;68091.63;5034610;28;20125;-83
2021/03/08 06:20:44;;;;;;;20.77;8.52;;;;;;;-143.98;100.00;68091.63;5051995;28;20044;-83
2021/03/08 06:23:15;;;;;;;22.85;9.02;;;;;;;-143.98;100.00;68091.63;5035103;28;20115;-84
2021/03/08 06:25:44;;;;;;;24.92;7.95;;;;;;;-143.98;100.00;68091.63;5047002;28;20045;-84
2021/03/08 06:28:10;;;;;;;26.10;8.68;;;;;;;-143.98;100.00;68091.63;5033858;28;20109;-82
2021/03/08 06:30:37;;;;;;;29.92;8.32;;;;;;;-143.98;100.00;68091.63;5034151;28;20221;-82
2021/03/08 06:33:04;;;;;;;17.65;6.10;;;;;;;-143.98;100.00;68091.63;5034316;28;20040;-80
2021/03/08 06:35:36;;;;;;;25.48;5.63;;;;;;;-143.98;100.00;68091.63;5052542;28;20077;-81
2021/03/08 06:38:05;;;;;;;16.23;5.40;;;;;;;-143.98;100.00;68091.63;5055136;28;20088;-82
2021/03/08 06:40:54;;;;;;;20.83;5.32;;;;;;;-143.98;100.00;68091.63;5035361;28;20175;-81
2021/03/08 06:43:21;;;;;;;18.42;5.75;;;;;;;-143.98;100.00;68091.63;5032252;28;20053;-82
2021/03/08 06:45:50;;;;;;;16.90;4.82;;;;;;;-143.98;100.00;68091.63;5050362;28;20048;-83
2021/03/08 06:48:19;;;;;;;13.70;4.40;;;;;;;-143.98;100.00;68091.63;5056736;28;20080;-84
2021/03/08 06:50:47;;;;;;;16.70;4.63;;;;;;;-143.98;100.00;68091.63;5037204;28;20041;-83
2021/03/08 06:53:30;;;;;;;12.38;3.45;;;;;;;-143.98;100.00;68091.63;5032831;28;20048;-82
2021/03/08 06:56:25;;;;;;;17.45;3.90;;;;;;;-143.98;100.00;68091.63;5055659;28;20754;-84
2021/03/08 06:59:21;;;;;;;17.25;3.83;;;;;;;-143.98;100.00;68091.63;5051031;28;20044;-84
2021/03/08 07:02:10;;;;;;;;;;;;;;;-143.98;100.00;68091.63;5047567;28;20074;-84
2021/03/08 07:04:44;;;;;;;13.40;3.72;;;;;;;-143.98;100.00;68091.63;5036894;28;19920;-85
2021/03/08 07:07:12;;;;;;;16.75;4.22;;;;;;;-143.98;100.00;68091.63;5032411;28;20049;-83
2021/03/08 07:09:53;;;;;;;14.55;3.33;;;;;;;-143.98;100.00;68091.63;5054242;28;20457;-84
2021/03/08 07:12:21;;;;;;;12.65;3.08;;;;;;;-143.98;100.00;68091.63;5048892;28;20055;-84
2021/03/08 07:15:03;;;;;;;10.52;3.63;;;;;;;-143.98;100.00;68091.63;5036641;28;20053;-85
2021/03/08 07:17:39;;;;;;;13.30;3.22;;;;;;;-143.98;100.00;68091.63;5031096;28;20255;-84
2021/03/08 07:20:08;;;;;;;18.20;3.53;;;;;;;-143.98;100.00;68091.63;5048856;28;20045;-84
2021/03/08 07:22:40;;;;;;;15.48;3.28;;;;;;;-143.98;100.00;68091.63;5035758;28;20049;-83
2021/03/08 07:25:19;;;;;;;16.63;3.22;;;;;;;-143.98;100.00;68091.63;5050334;28;20064;-83
2021/03/08 07:27:58;;;;;;;10.45;3.05;;;;;;;-143.98;100.00;68091.63;5052542;28;20437;-83
2021/03/08 07:30:32;;;;;;;10.82;3.97;;;;;;;-143.98;100.00;68091.63;5045529;28;20060;-83
2021/03/08 07:33:04;;;;;;;16.17;3.45;;;;;;;-143.98;100.00;68091.63;5033243;28;20242;-83
2021/03/08 07:35:35;;;;;;;16.92;3.70;;;;;;;-143.98;100.00;68091.63;5035470;28;20397;-84
2021/03/08 07:38:06;;;;;;;11.52;3.13;;;;;;;-143.98;100.00;68091.63;5046719;28;20045;-84
2021/03/08 07:40:41;;;;;;;10.70;3.40;;;;;;;-143.98;100.00;68091.63;5034601;28;20068;-83
2021/03/08 07:43:21;;;;;;;15.30;3.13;;;;;;;-143.98;100.00;68091.63;5047686;28;20049;-84
2021/03/08 07:45:54;;;;;;;12.05;3.38;;;;;;;-143.98;100.00;68091.63;5049200;28;20131;-84
2021/03/08 07:48:26;;;;;;;32.75;4.30;;;;;;;-143.98;100.00;68091.63;5037080;28;20243;-83
2021/03/08 07:51:06;;;;;;;10.43;2.85;;;;;;;-143.98;100.00;68091.63;5054458;28;20421;-84
2021/03/08 07:53:35;;;;;;;7.43;2.92;;;;;;;-143.98;100.00;68091.63;5025430;28;20063;-84
2021/03/08 07:56:06;;;;;;;9.68;3.05;;;;;;;-143.98;100.00;68091.63;5048342;28;20343;-84
2021/03/08 07:58:37;;;;;;;10.52;2.58;;;;;;;-143.98;100.00;68091.63;5051932;28;20064;-84
2021/03/08 08:01:07;;;;;;;11.32;3.97;;;;;;;-143.98;100.00;68091.63;5046722;28;20617;-84
2021/03/08 08:03:37;;;;;;;6.43;3.60;;;;;;;-143.98;100.00;68091.63;5027426;28;20228;-84
2021/03/08 08:06:10;;;;;;;11.70;4.15;;;;;;;-143.98;100.00;68091.63;5028844;28;20049;-83
2021/03/08 08:08:37;;;;;;;14.02;3.75;;;;;;;-143.98;100.00;68091.63;5031250;28;20122;-83
2021/03/08 08:11:09;;;;;;;15.40;3.15;;;;;;;-143.98;100.00;68091.63;5048186;28;20242;-82
2021/03/08 08:13:45;;;;;;;7.10;2.70;;;;;;;-143.98;100.00;68091.63;5035693;28;20104;-83
2021/03/08 08:16:39;;;;;;;6.63;2.67;;;;;;;-143.98;100.00;68091.63;5030932;28;20080;-83
2021/03/08 08:19:12;;;;;;;12.00;3.85;;;;;;;-143.98;100.00;68091.63;5043828;28;20132;-82
2021/03/08 08:21:44;;;;;;;10.23;3.33;;;;;;;-143.98;100.00;68091.63;5047443;28;20053;-83
2021/03/08 08:24:14;;;;;;;9.63;3.00;;;;;;;-143.98;100.00;68091.63;5029861;28;20053;-82
2021/03/08 08:26:41;;;;;;;8.77;3.33;;;;;;;-143.98;100.00;68091.63;5048651;28;20052;-83
2021/03/08 08:29:09;;;;;;;16.58;3.08;;;;;;;-143.98;100.00;68091.63;5048057;28;20048;-83
2021/03/08 08:32:11;;;;;;;12.07;2.55;;;;;;;-143.98;100.00;68091.63;5048460;28;20041;-83
2021/03/08 08:34:51;;;;;;;12.93;2.70;;;;;;;-143.98;100.00;68091.63;5028144;28;20060;-83
2021/03/08 08:37:20;;;;;;;6.65;2.63;;;;;;;-143.98;100.00;68091.63;5046259;28;20057;-84
2021/03/08 08:40:01;;;;;;;9.68;2.65;;;;;;;-143.98;100.00;68091.63;5047827;28;20287;-84
2021/03/08 08:42:32;;;;;;;8.85;2.35;;;;;;;-143.98;100.00;68091.63;5052165;28;20068;-84
2021/03/08 08:45:21;;;;;;;7.20;2.40;;;;;;;-143.98;100.00;68091.63;5039328;28;20233;-84
2021/03/08 08:48:06;;;;;;;5.60;2.28;;;;;;;-143.98;100.00;68091.63;5049976;28;20113;-84
2021/03/08 08:50:53;;;;;;;14.02;2.80;;;;;;;-143.98;100.00;68091.63;5066279;28;20297;-83
2021/03/08 08:53:35;;;;;;;9.10;2.13;;;;;;;-143.98;100.00;68091.63;5050620;28;20053;-84
2021/03/08 08:56:11;;;;;;;5.68;2.13;;;;;;;-143.98;100.00;68091.63;5052441;28;20498;-84
2021/03/08 08:58:50;;;;;;;3.30;1.70;;;;;;;-143.98;100.00;68091.63;5055672;28;20049;-84
2021/03/08 09:01:27;;;;;;;7.75;2.15;;;;;;;-143.98;100.00;68091.63;5063991;28;20598;-83
2021/03/08 09:04:07;;;;;;;13.45;3.50;;;;;;;-143.98;100.00;68091.63;5091788;28;20040;-83
2021/03/08 09:06:53;;;;;;;9.98;2.30;;;;;;;-143.98;100.00;68091.63;5044491;28;20186;-82
2021/03/08 09:09:30;;;;;;;5.53;1.97;;;;;;;-143.98;100.00;68091.63;5052289;28;20052;-83
2021/03/08 09:12:07;;;;;;;11.20;2.28;;;;;;;-143.98;100.00;68091.63;5058443;28;20045;-83
2021/03/08 09:14:36;;;;;;;6.10;2.28;;;;;;;-143.98;100.00;68091.63;5045167;28;20369;-83
2021/03/08 09:17:13;;;;;;;6.88;1.73;;;;;;;-143.98;100.00;68091.63;5038975;28;20149;-84
2021/03/08 09:19:45;;;;;;;7.78;2.10;;;;;;;-143.98;100.00;68091.63;5033008;28;20054;-84
2021/03/08 09:22:20;;;;;;;9.27;2.22;;;;;;;-143.98;100.00;68091.63;5067478;28;20052;-83
2021/03/08 09:24:50;;;;;;;8.00;2.15;;;;;;;-143.98;100.00;68091.63;5049776;28;20053;-83
2021/03/08 09:27:31;;;;;;;6.88;2.10;;;;;;;-143.98;100.00;68091.63;5032428;28;20053;-83
2021/03/08 09:30:16;;;;;;;11.55;2.42;;;;;;;-143.98;100.00;68091.63;5054275;28;20045;-84
2021/03/08 09:33:06;;;;;;;4.93;1.63;;;;;;;-143.98;100.00;68091.63;5050376;28;20048;-83
2021/03/08 09:35:51;;;;;;;10.50;1.98;;;;;;;-143.98;100.00;68091.63;5051873;28;20114;-84
2021/03/08 09:38:20;;;;;;;7.38;1.92;;;;;;;-143.98;100.00;68091.63;5035357;28;20208;-84
2021/03/08 09:40:53;;;;;;;6.68;2.13;;;;;;;-143.98;100.00;68091.63;5029445;28;20410;-84
2021/03/08 09:43:32;;;;;;;5.90;1.90;;;;;;;-143.98;100.00;68091.63;5034800;28;20092;-84
2021/03/08 09:46:17;;;;;;;5.90;2.00;;;;;;;-143.98;100.00;68091.63;5047079;28;20087;-85
2021/03/08 09:49:04;;;;;;;6.88;1.95;;;;;;;-143.98;100.00;68091.63;5034443;28;20450;-84
2021/03/08 09:51:51;;;;;;;5.05;2.20;;;;;;;-143.98;100.00;68091.63;5029420;28;20290;-84
2021/03/08 09:54:19;;;;;;;8.05;1.73;;;;;;;-143.98;100.00;68091.63;5048211;28;20049;-84
2021/03/08 09:56:45;;;;;;;5.43;1.77;;;;;;;-143.98;100.00;68091.63;5049245;28;20049;-84
2021/03/08 09:59:12;;;;;;;5.25;1.48;;;;;;;-143.98;100.00;68091.63;5030619;28;20045;-85
2021/03/08 10:01:39;;;;;;;9.20;2.15;;;;;;;-143.98;100.00;68091.63;5032904;28;20048;-83
2021/03/08 10:04:05;;;;;;;7.50;1.55;;;;;;;-143.98;100.00;68091.63;5032098;28;20206;-82
2021/03/08 10:06:46;;;;;;;7.22;1.83;;;;;;;-143.98;100.00;68091.63;5047659;28;20044;-83
2021/03/08 10:09:20;;;;;;;4.35;2.00;;;;;;;-143.98;100.00;68091.63;5034037;28;20085;-83
2021/03/08 10:12:03;;;;;;;7.10;2.40;;;;;;;-143.98;100.00;68091.63;5065154;28;20059;-83
2021/03/08 10:14:35;;;;;;;7.25;2.17;;;;;;;-143.98;100.00;68091.63;5049341;28;20464;-84
2021/03/08 10:17:07;;;;;;;5.13;1.65;;;;;;;-143.98;100.00;68091.63;5065032;28;20181;-83
2021/03/08 10:19:34;;;;;;;3.30;1.20;;;;;;;-143.98;100.00;68091.63;5052608;28;20059;-83
2021/03/08 10:22:01;;;;;;;5.10;1.77;;;;;;;-143.98;100.00;68091.63;5047779;28;20128;-83
2021/03/08 10:24:39;;;;;;;3.72;1.40;;;;;;;-143.98;100.00;68091.63;5033504;28;20048;-84
2021/03/08 10:27:10;;;;;;;3.97;1.65;;;;;;;-143.98;100.00;68091.63;5050386;28;20152;-84
2021/03/08 10:29:39;;;;;;;6.10;1.40;;;;;;;-143.98;100.00;68091.63;5053266;28;20292;-83
2021/03/08 10:32:12;;;;;;;6.13;1.45;;;;;;;-143.98;100.00;68091.63;5048895;28;20056;-84
2021/03/08 10:34:43;;;;;;;3.35;1.58;;;;;;;-143.98;100.00;68091.63;5054986;28;20036;-84
2021/03/08 10:37:24;;;;;;;3.80;1.45;;;;;;;-143.98;100.00;68091.63;5053848;28;20041;-84
2021/03/08 10:39:53;;;;;;;5.97;1.13;;;;;;;-143.98;100.00;68091.63;5048874;28;20147;-84
2021/03/08 10:42:21;;;;;;;5.55;1.60;;;;;;;-143.98;100.00;68091.63;5033391;28;20060;-84
2021/03/08 10:44:48;;;;;;;4.30;1.08;;;;;;;-143.98;100.00;68091.63;5047376;28;20097;-84
2021/03/08 10:47:16;;;;;;;9.35;1.65;;;;;;;-143.98;100.00;68091.63;5043026;28;20156;-84
2021/03/08 10:49:59;;;;;;;5.30;1.52;;;;;;;-143.98;100.00;68091.63;5022833;28;20108;-84
2021/03/08 10:52:28;;;;;;;3.07;1.20;;;;;;;-143.98;100.00;68091.63;5036515;28;20053;-84
2021/03/08 10:54:58;;;;;;;7.95;1.10;;;;;;;-143.98;100.00;68091.63;5051339;28;20126;-84
2021/03/08 10:57:57;;;;;;;2.38;1.10;;;;;;;-143.98;100.00;68091.63;5046469;28;20516;-83
2021/03/08 11:00:23;;;;;;;5.95;1.35;;;;;;;-143.98;100.00;68091.63;5031882;28;20045;-84
2021/03/08 11:02:52;;;;;;;2.28;0.93;;;;;;;-143.98;100.00;68091.63;5033410;28;20186;-84
2021/03/08 11:05:23;;;;;;;4.53;1.08;;;;;;;-143.98;100.00;68091.63;5034898;28;20075;-84
2021/03/08 11:07:52;;;;;;;4.30;1.10;;;;;;;-143.98;100.00;68091.63;5027774;28;20106;-84
2021/03/08 11:10:38;;;;;;;6.40;1.15;;;;;;;-143.98;100.00;68091.63;5079206;28;20063;-84
2021/03/08 11:13:08;;;;;;;2.05;0.93;;;;;;;-143.98;100.00;68091.63;5027474;28;20240;-84
2021/03/08 11:15:35;;;;;;;2.60;1.10;;;;;;;-143.98;100.00;68091.63;5048445;28;20044;-82
2021/03/08 11:18:29;;;;;;;2.47;0.80;;;;;;;-143.98;100.00;68091.63;5030740;28;20207;-84
2021/03/08 11:20:55;;;;;;;3.35;1.00;;;;;;;-143.98;100.00;68091.63;5033608;28;20048;-84
2021/03/08 11:23:25;;;;;;;1.10;0.40;;;;;;;-143.98;100.00;68091.63;5047741;28;20049;-84
2021/03/08 11:26:32;;;;;;;0.70;0.55;;;;;;;-143.98;100.00;68091.63;5050476;28;20203;-84
2021/03/08 11:29:23;;;;;;;3.58;1.00;;;;;;;-143.98;100.00;68091.63;5058146;28;20049;-83
2021/03/08 11:32:02;;;;;;;3.92;1.20;;;;;;;-143.98;100.00;68091.63;5049293;28;20052;-83